Time;durP1;ratioP1;P1;durP2;ratioP2;P2;SDS_P1;SDS_P2;PMS_P1;PMS_P2;Temp;Humidity;BMP_temperature;BMP_pressure;BME280_temperature;BME280_humidity;BME280_pressure;Samples;Min_cycle;Max_cycle;Signal;HPM_P1;HPM_P2
2023/07/19 00:01:30;;;;;;;9.15;5.00;;;;;;;16.15;100.00;101341.16;5029277;28;20052;-66
2023/07/19 00:03:55;;;;;;;7.55;5.57;;;;;;;16.07;100.00;101355.72;5029190;28;20124;-66
2023/07/19 00:06:23;;;;;;;6.38;5.25;;;;;;;16.01;100.00;101359.28;5028918;28;20026;-66
2023/07/19 00:08:48;;;;;;;6.78;4.65;;;;;;;15.87;100.00;101355.06;5029019;28;20140;-66
2023/07/19 00:11:14;;;;;;;10.52;4.80;;;;;;;15.88;100.00;101354.84;5029148;28;20133;-66
2023/07/19 00:13:39;;;;;;;10.27;5.65;;;;;;;15.76;100.00;101345.84;5011137;28;20055;-66
2023/07/19 00:16:05;;;;;;;16.00;7.53;;;;;;;15.79;100.00;101337.31;5028767;28;20053;-66
2023/07/19 00:18:30;;;;;;;10.68;7.30;;;;;;;15.82;100.00;101338.75;5028883;28;20049;-66
2023/07/19 00:20:55;;;;;;;8.75;5.28;;;;;;;15.89;100.00;101340.34;5028682;28;20519;-66
2023/07/19 00:23:21;;;;;;;10.20;5.47;;;;;;;15.85;100.00;101338.31;5028714;28;20034;-66
2023/07/19 00:25:46;;;;;;;8.93;5.65;;;;;;;15.86;100.00;101332.72;5028826;28;20072;-66
2023/07/19 00:28:11;;;;;;;8.68;4.55;;;;;;;15.87;100.00;101345.13;5028800;28;20052;-66
2023/07/19 00:30:38;;;;;;;7.88;4.32;;;;;;;15.86;100.00;101324.66;5028873;28;20029;-66
2023/07/19 00:33:03;;;;;;;8.07;5.07;;;;;;;15.89;100.00;101329.59;5028533;28;20040;-66
2023/07/19 00:35:29;;;;;;;10.25;5.32;;;;;;;15.88;100.00;101322.56;5028830;28;20037;-66
2023/07/19 00:37:54;;;;;;;10.45;4.63;;;;;;;15.90;100.00;101322.31;5028674;28;20021;-66
2023/07/19 00:40:20;;;;;;;10.13;5.43;;;;;;;15.88;100.00;101314.50;5012994;28;20052;-66
2023/07/19 00:42:45;;;;;;;10.40;5.80;;;;;;;15.88;100.00;101311.81;5032693;28;20036;-66
2023/07/19 00:45:11;;;;;;;11.18;5.97;;;;;;;15.89;100.00;101315.31;5032648;28;20033;-66
2023/07/19 00:47:37;;;;;;;9.73;5.38;;;;;;;15.91;100.00;101314.06;5032619;28;20025;-66
2023/07/19 00:50:03;;;;;;;12.80;5.60;;;;;;;15.92;100.00;101306.78;5015005;28;20040;-66
2023/07/19 00:52:28;;;;;;;10.50;6.10;;;;;;;15.87;100.00;101303.94;5032218;28;20053;-66
2023/07/19 00:54:54;;;;;;;11.05;4.78;;;;;;;15.84;100.00;101299.81;5032497;28;20388;-66
2023/07/19 00:57:19;;;;;;;8.55;5.43;;;;;;;15.79;100.00;101294.28;5032227;28;20030;-66
2023/07/19 00:59:45;;;;;;;10.27;5.20;;;;;;;15.78;100.00;101290.78;5032324;28;20503;-66
2023/07/19 01:02:12;;;;;;;12.52;6.80;;;;;;;15.78;100.00;101289.97;5032501;28;20034;-66
2023/07/19 01:04:38;;;;;;;8.93;5.57;;;;;;;15.77;100.00;101290.97;5032423;28;20509;-66
2023/07/19 01:07:03;;;;;;;12.52;6.70;;;;;;;15.68;100.00;101287.72;5032442;28;20025;-66
2023/07/19 01:09:29;;;;;;;10.98;5.78;;;;;;;15.71;100.00;101289.19;4995402;28;20025;-66
2023/07/19 01:11:54;;;;;;;9.93;6.80;;;;;;;15.74;100.00;101291.44;5013505;28;20080;-66
2023/07/19 01:14:20;;;;;;;7.78;5.25;;;;;;;15.73;100.00;101290.63;5013261;28;20034;-66
2023/07/19 01:16:45;;;;;;;10.65;5.70;;;;;;;15.75;100.00;101287.72;5013200;28;20480;-65
2023/07/19 01:19:10;;;;;;;8.90;5.90;;;;;;;15.75;100.00;101285.03;5013312;28;20424;-66
2023/07/19 01:21:36;;;;;;;9.20;5.47;;;;;;;15.76;100.00;101282.09;5013311;28;20092;-66
2023/07/19 01:24:01;;;;;;;12.40;5.75;;;;;;;15.74;100.00;101283.38;5013061;28;20502;-66
2023/07/19 01:26:27;;;;;;;12.10;6.03;;;;;;;15.76;100.00;101287.47;5013198;28;20025;-66
2023/07/19 01:28:56;;;;;;;10.60;5.80;;;;;;;15.78;100.00;101285.41;5013118;28;20088;-66
2023/07/19 01:31:21;;;;;;;9.65;5.03;;;;;;;15.80;100.00;101279.81;5012972;28;20460;-66
2023/07/19 01:33:47;;;;;;;8.57;5.32;;;;;;;15.80;100.00;101269.06;5013021;28;20057;-66
2023/07/19 01:36:12;;;;;;;12.27;5.95;;;;;;;15.82;100.00;101282.25;5012649;28;20060;-66
2023/07/19 01:38:38;;;;;;;7.35;4.93;;;;;;;15.82;100.00;101269.63;5031776;28;20037;-66
2023/07/19 01:41:03;;;;;;;8.13;5.95;;;;;;;15.76;100.00;101271.34;5031797;28;20542;-66
2023/07/19 01:43:29;;;;;;;9.27;5.68;;;;;;;15.84;100.00;101264.03;5031745;28;20025;-65
2023/07/19 01:45:54;;;;;;;8.40;5.43;;;;;;;15.80;100.00;101257.44;5031418;28;20476;-66
2023/07/19 01:48:19;;;;;;;9.35;6.90;;;;;;;15.80;100.00;101265.53;5031478;28;20484;-66
2023/07/19 01:50:46;;;;;;;12.40;5.53;;;;;;;15.80;100.00;101260.13;5031259;28;20120;-66
2023/07/19 01:53:12;;;;;;;7.75;5.40;;;;;;;15.78;100.00;101263.88;5031121;28;20061;-66
2023/07/19 01:55:39;;;;;;;8.38;5.70;;;;;;;15.80;100.00;101260.13;5013675;28;20060;-65
2023/07/19 01:58:05;;;;;;;11.82;6.88;;;;;;;15.78;100.00;101255.00;5031374;28;20059;-66
2023/07/19 02:00:30;;;;;;;10.35;5.35;;;;;;;15.78;100.00;101260.38;5031366;28;20477;-66
2023/07/19 02:02:55;;;;;;;8.98;5.95;;;;;;;15.73;100.00;101266.41;5031333;28;20037;-66
2023/07/19 02:05:21;;;;;;;9.68;6.00;;;;;;;15.70;100.00;101268.72;5031136;28;20420;-66
2023/07/19 02:07:46;;;;;;;10.20;6.55;;;;;;;15.66;100.00;101265.59;5031061;28;20048;-66
2023/07/19 02:10:11;;;;;;;8.95;5.95;;;;;;;15.62;100.00;101267.09;5013389;28;20037;-66
2023/07/19 02:12:37;;;;;;;11.30;7.22;;;;;;;15.56;100.00;101265.28;5031198;28;20041;-66
2023/07/19 02:15:02;;;;;;;10.48;6.25;;;;;;;15.51;100.00;101262.41;5030902;28;20484;-66
2023/07/19 02:17:28;;;;;;;14.25;5.88;;;;;;;15.51;100.00;101257.03;5030824;28;20392;-67
2023/07/19 02:19:53;;;;;;;8.00;5.32;;;;;;;15.47;100.00;101258.53;5031040;28;20079;-66
2023/07/19 02:22:18;;;;;;;8.07;6.03;;;;;;;15.44;100.00;101251.75;5013115;28;20045;-65
2023/07/19 02:24:44;;;;;;;9.32;5.60;;;;;;;15.41;100.00;101251.38;5030764;28;20025;-66
2023/07/19 02:27:09;;;;;;;10.95;6.80;;;;;;;15.39;100.00;101248.06;5030601;28;20548;-66
2023/07/19 02:29:34;;;;;;;11.15;6.15;;;;;;;15.41;100.00;101249.50;5030954;28;20073;-66
2023/07/19 02:32:00;;;;;;;9.27;5.95;;;;;;;15.37;100.00;101244.75;5030927;28;20084;-66
2023/07/19 02:34:26;;;;;;;8.48;5.68;;;;;;;15.36;100.00;101238.56;5030648;28;20056;-66
2023/07/19 02:36:51;;;;;;;8.82;6.45;;;;;;;15.33;100.00;101234.47;5030565;28;20177;-66
2023/07/19 02:39:17;;;;;;;10.35;6.03;;;;;;;15.31;100.00;101231.16;5012846;28;20094;-66
2023/07/19 02:41:42;;;;;;;8.90;6.43;;;;;;;15.33;100.00;101239.84;5030777;28;20133;-66
2023/07/19 02:44:07;;;;;;;8.35;5.90;;;;;;;15.33;100.00;101234.47;5030555;28;20116;-66
2023/07/19 02:46:33;;;;;;;9.00;6.13;;;;;;;15.34;100.00;101238.78;5030510;28;20041;-66
2023/07/19 02:48:58;;;;;;;10.90;6.07;;;;;;;15.32;100.00;101248.91;5012909;28;20068;-66
2023/07/19 02:51:23;;;;;;;11.27;6.05;;;;;;;15.31;100.00;101243.78;5030187;28;20033;-66
2023/07/19 02:53:49;;;;;;;9.68;6.03;;;;;;;15.26;100.00;101241.75;5030048;28;20060;-66
2023/07/19 02:56:15;;;;;;;9.55;6.03;;;;;;;15.27;100.00;101245.25;5030016;28;20025;-66
2023/07/19 02:58:41;;;;;;;11.32;6.05;;;;;;;15.27;100.00;101251.47;5030109;28;20025;-66
2023/07/19 03:01:07;;;;;;;8.48;5.72;;;;;;;15.27;100.00;101251.47;5030024;28;20080;-66
2023/07/19 03:03:32;;;;;;;13.00;7.85;;;;;;;15.26;100.00;101251.66;5029681;28;20063;-66
2023/07/19 03:05:57;;;;;;;9.75;6.18;;;;;;;15.26;100.00;101257.88;5029992;28;20037;-66
2023/07/19 03:08:23;;;;;;;7.90;5.43;;;;;;;15.19;100.00;101246.31;5030153;28;20116;-66
2023/07/19 03:10:53;;;;;;;9.73;6.10;;;;;;;15.18;100.00;101252.75;5029965;28;20029;-66
2023/07/19 03:13:19;;;;;;;10.65;6.00;;;;;;;15.18;100.00;101243.88;5030052;28;20032;-66
2023/07/19 03:15:46;;;;;;;10.70;6.55;;;;;;;15.21;100.00;101243.44;5029972;28;20059;-66
2023/07/19 03:18:12;;;;;;;9.63;5.25;;;;;;;15.23;100.00;101250.25;5029872;28;20030;-66
2023/07/19 03:20:37;;;;;;;8.68;5.50;;;;;;;15.12;100.00;101238.34;5012001;28;20426;-66
2023/07/19 03:23:03;;;;;;;12.35;5.80;;;;;;;15.14;100.00;101240.78;5029832;28;20029;-66
2023/07/19 03:25:29;;;;;;;13.13;5.80;;;;;;;15.19;100.00;101248.19;5012303;28;20128;-66
2023/07/19 03:27:55;;;;;;;8.25;5.60;;;;;;;15.17;100.00;101255.66;5029607;28;20635;-66
2023/07/19 03:30:20;;;;;;;8.85;5.28;;;;;;;15.12;100.00;101248.25;5029336;28;20040;-66
2023/07/19 03:32:47;;;;;;;12.68;6.93;;;;;;;15.21;100.00;101255.00;5029667;28;20033;-66
2023/07/19 03:35:12;;;;;;;10.30;5.50;;;;;;;15.18;100.00;101250.06;5029409;28;20033;-66
2023/07/19 03:37:38;;;;;;;8.63;5.80;;;;;;;15.19;100.00;101259.75;5029281;28;20026;-66
2023/07/19 03:40:04;;;;;;;8.93;5.97;;;;;;;15.24;100.00;101261.81;5029565;28;20029;-66
2023/07/19 03:42:29;;;;;;;10.98;6.35;;;;;;;15.24;100.00;101262.63;5029463;28;20029;-66
2023/07/19 03:44:55;;;;;;;7.93;5.55;;;;;;;15.26;100.00;101267.78;5029509;28;20036;-66
2023/07/19 03:47:20;;;;;;;8.07;5.13;;;;;;;15.24;100.00;101278.75;5011720;28;20029;-66
2023/07/19 03:49:45;;;;;;;6.85;5.10;;;;;;;15.26;100.00;101265.94;5005973;28;20049;-66
2023/07/19 03:52:11;;;;;;;11.98;6.65;;;;;;;15.25;100.00;101268.84;5009821;28;20112;-66
2023/07/19 03:54:36;;;;;;;12.05;6.72;;;;;;;15.32;100.00;101265.03;5010179;28;20083;-66
2023/07/19 03:57:01;;;;;;;8.43;5.47;;;;;;;15.32;100.00;101265.03;5010119;28;20034;-66
2023/07/19 03:59:27;;;;;;;7.50;5.70;;;;;;;15.32;100.00;101270.41;5010349;28;20033;-66
2023/07/19 04:01:52;;;;;;;9.10;5.88;;;;;;;15.33;100.00;101263.19;5010052;28;20030;-66
2023/07/19 04:04:18;;;;;;;11.90;6.00;;;;;;;15.31;100.00;101260.72;5010075;28;20029;-66
2023/07/19 04:06:43;;;;;;;9.48;6.13;;;;;;;15.36;100.00;101254.69;5010179;28;20034;-66
2023/07/19 04:09:09;;;;;;;12.07;5.70;;;;;;;15.41;100.00;101267.50;5009819;28;20431;-66
2023/07/19 04:11:35;;;;;;;12.30;6.65;;;;;;;15.47;100.00;101267.44;5010119;28;20076;-66
2023/07/19 04:14:00;;;;;;;10.27;6.47;;;;;;;15.54;100.00;101264.69;5028110;28;20072;-66
2023/07/19 04:16:25;;;;;;;11.73;6.40;;;;;;;15.57;100.00;101265.06;5028673;28;20033;-66
2023/07/19 04:18:51;;;;;;;10.25;5.28;;;;;;;15.58;100.00;101263.19;5028801;28;20112;-66
2023/07/19 04:21:16;;;;;;;10.65;6.43;;;;;;;15.58;100.00;101260.50;5028837;28;20048;-66
2023/07/19 04:23:42;;;;;;;11.15;6.00;;;;;;;15.59;100.00;101261.31;5028823;28;20025;-66
2023/07/19 04:26:07;;;;;;;10.10;6.70;;;;;;;15.60;100.00;101261.13;5028782;28;20034;-66
2023/07/19 04:28:32;;;;;;;10.57;6.15;;;;;;;15.64;100.00;101251.59;5028436;28;20121;-66
2023/07/19 04:30:58;;;;;;;8.98;5.88;;;;;;;15.68;100.00;101258.16;5028720;28;20037;-66
2023/07/19 04:33:23;;;;;;;13.95;7.10;;;;;;;15.68;100.00;101255.47;5028459;28;20025;-66
2023/07/19 04:35:50;;;;;;;10.35;6.53;;;;;;;15.70;100.00;101264.16;5028559;28;20029;-66
2023/07/19 04:38:16;;;;;;;10.05;5.93;;;;;;;15.73;100.00;101260.22;5028592;28;20033;-66
2023/07/19 04:40:41;;;;;;;13.57;5.65;;;;;;;15.74;100.00;101270.72;5011058;28;20500;-65
2023/07/19 04:43:07;;;;;;;7.90;5.10;;;;;;;15.73;100.00;101271.78;5028420;28;20053;-66
2023/07/19 04:45:32;;;;;;;8.80;6.38;;;;;;;15.81;100.00;101261.81;5020847;28;20046;-66
2023/07/19 04:47:57;;;;;;;10.02;5.90;;;;;;;15.77;100.00;101261.41;5009606;28;20080;-66
2023/07/19 04:50:24;;;;;;;16.15;7.63;;;;;;;15.80;100.00;101260.13;5009447;28;20061;-66
2023/07/19 04:52:50;;;;;;;9.57;5.93;;;;;;;15.84;100.00;101267.56;5028140;28;20050;-66
2023/07/19 04:55:16;;;;;;;10.57;6.50;;;;;;;15.86;100.00;101260.09;5028432;28;20052;-65
2023/07/19 04:57:41;;;;;;;13.63;6.32;;;;;;;15.88;100.00;101271.47;5028271;28;20025;-66
2023/07/19 05:00:11;;;;;;;10.13;6.65;;;;;;;15.90;100.00;101268.53;5028253;28;20388;-66
2023/07/19 05:02:40;;;;;;;11.18;6.45;;;;;;;15.89;100.00;101281.16;5028442;28;20527;-66
2023/07/19 05:05:07;;;;;;;12.00;6.95;;;;;;;15.92;100.00;101279.91;5028395;28;20033;-66
2023/07/19 05:07:36;;;;;;;13.25;6.38;;;;;;;15.88;100.00;101279.53;5028361;28;20076;-66
2023/07/19 05:10:03;;;;;;;14.68;7.43;;;;;;;15.96;100.00;101279.25;5028437;28;20388;-66
2023/07/19 05:12:32;;;;;;;11.68;6.80;;;;;;;15.99;100.00;101281.47;5028426;28;20030;-66
2023/07/19 05:14:58;;;;;;;13.32;7.85;;;;;;;16.04;100.00;101280.00;5010573;28;20792;-66
2023/07/19 05:17:23;;;;;;;10.48;6.82;;;;;;;16.08;100.00;101273.13;5028254;28;20140;-66
2023/07/19 05:19:49;;;;;;;10.65;6.85;;;;;;;16.10;100.00;101282.63;5028179;28;20132;-66
2023/07/19 05:22:14;;;;;;;13.80;7.72;;;;;;;16.13;100.00;101284.84;5028732;28;20491;-66
2023/07/19 05:24:40;;;;;;;13.43;8.30;;;;;;;16.17;100.00;101283.38;5028054;28;20060;-66
2023/07/19 05:27:06;;;;;;;10.75;7.80;;;;;;;16.24;100.00;101285.16;5013110;28;20119;-66
2023/07/19 05:29:31;;;;;;;11.20;7.32;;;;;;;16.26;100.00;101278.50;5031978;28;20021;-66
2023/07/19 05:31:57;;;;;;;12.75;8.23;;;;;;;16.33;100.00;101283.84;5031679;28;20043;-66
2023/07/19 05:34:22;;;;;;;10.90;6.97;;;;;;;16.38;100.00;101286.69;5031515;28;20025;-66
2023/07/19 05:36:48;;;;;;;9.77;6.68;;;;;;;16.45;100.00;101290.09;5031712;28;20037;-66
2023/07/19 05:39:14;;;;;;;12.35;7.20;;;;;;;16.57;100.00;101287.50;5031966;28;20495;-66
2023/07/19 05:41:39;;;;;;;12.82;8.02;;;;;;;16.65;100.00;101285.31;5031860;28;20025;-66
2023/07/19 05:44:05;;;;;;;12.07;8.50;;;;;;;16.76;100.00;101288.28;5031312;28;20044;-66
2023/07/19 05:46:33;;;;;;;13.82;7.65;;;;;;;16.81;100.00;101281.19;5031522;28;20033;-67
2023/07/19 05:48:58;;;;;;;12.73;8.25;;;;;;;16.89;100.00;101282.75;5031426;28;20176;-66
2023/07/19 05:51:23;;;;;;;11.90;7.32;;;;;;;16.98;100.00;101275.19;5031354;28;20997;-66
2023/07/19 05:53:49;;;;;;;14.20;8.43;;;;;;;17.02;100.00;101281.75;5031007;28;20104;-66
2023/07/19 05:56:14;;;;;;;13.23;7.72;;;;;;;17.11;100.00;101271.47;5031285;28;20041;-66
2023/07/19 05:58:40;;;;;;;11.65;6.75;;;;;;;17.18;100.00;101278.41;5030942;28;20033;-66
2023/07/19 06:01:07;;;;;;;9.82;6.10;;;;;;;17.28;100.00;101283.22;5013396;28;20180;-66
2023/07/19 06:03:33;;;;;;;10.57;6.00;;;;;;;17.30;99.48;101281.94;5031176;28;20032;-66
2023/07/19 06:06:02;;;;;;;13.30;7.40;;;;;;;17.33;98.33;101291.47;5031201;28;20042;-68
2023/07/19 06:08:27;;;;;;;9.95;6.47;;;;;;;17.34;99.16;101279.59;5031036;28;20032;-66
2023/07/19 06:10:52;;;;;;;16.95;6.90;;;;;;;17.41;98.52;101288.41;5031328;28;20033;-66
2023/07/19 06:13:18;;;;;;;13.90;7.18;;;;;;;17.45;97.62;101278.81;5031157;28;20571;-66
2023/07/19 06:15:43;;;;;;;12.07;6.55;;;;;;;17.49;96.31;101288.09;5030971;28;20034;-66
2023/07/19 06:18:09;;;;;;;11.35;5.85;;;;;;;17.49;95.54;101280.00;5030925;28;20033;-66
2023/07/19 06:20:34;;;;;;;10.63;6.05;;;;;;;17.55;95.25;101280.94;5013090;28;20488;-66
2023/07/19 06:22:59;;;;;;;9.90;6.30;;;;;;;17.68;95.13;101278.03;5030644;28;20080;-66
2023/07/19 06:25:25;;;;;;;8.60;5.63;;;;;;;17.85;94.79;101278.19;5002522;28;20026;-68
2023/07/19 06:27:50;;;;;;;9.98;5.55;;;;;;;18.05;93.90;101282.41;5011334;28;20026;-66
2023/07/19 06:30:15;;;;;;;13.35;6.22;;;;;;;18.15;91.62;101282.63;5011789;28;20377;-66
2023/07/19 06:32:41;;;;;;;10.25;6.68;;;;;;;18.26;92.12;101279.09;5011500;28;20469;-66
2023/07/19 06:35:08;;;;;;;13.75;5.40;;;;;;;18.34;90.58;101286.03;5030305;28;20447;-66
2023/07/19 06:37:34;;;;;;;8.02;5.68;;;;;;;18.37;88.91;101280.97;5029574;28;20037;-66
2023/07/19 06:40:03;;;;;;;10.07;5.65;;;;;;;18.41;88.86;101275.88;5030244;28;20095;-66
2023/07/19 06:42:32;;;;;;;8.93;5.40;;;;;;;18.45;87.94;101278.94;5030033;28;20037;-66
2023/07/19 06:44:58;;;;;;;10.88;5.30;;;;;;;18.45;89.56;101276.25;5029997;28;20036;-66
2023/07/19 06:47:23;;;;;;;9.32;5.07;;;;;;;18.46;87.66;101280.59;5030465;28;20037;-66
2023/07/19 06:49:49;;;;;;;13.95;5.60;;;;;;;18.43;87.91;101281.06;5030271;28;20029;-66
2023/07/19 06:52:14;;;;;;;13.82;5.60;;;;;;;18.50;88.79;101279.88;5029783;28;20053;-66
2023/07/19 06:54:39;;;;;;;9.60;4.93;;;;;;;18.56;87.09;101283.50;5008050;28;20125;-66
2023/07/19 06:57:05;;;;;;;8.38;4.85;;;;;;;18.57;86.83;101280.53;5010816;28;20042;-66
2023/07/19 06:59:31;;;;;;;12.10;4.35;;;;;;;18.72;88.07;101285.44;5011156;28;20061;-66
2023/07/19 07:01:56;;;;;;;13.35;5.97;;;;;;;18.81;87.12;101294.84;5011062;28;20041;-66
2023/07/19 07:04:22;;;;;;;9.32;4.82;;;;;;;18.97;86.02;101284.34;4993790;28;20111;-68
2023/07/19 07:06:47;;;;;;;12.80;5.22;;;;;;;19.10;84.86;101281.34;5010464;28;20362;-66
2023/07/19 07:09:14;;;;;;;9.55;4.82;;;;;;;19.24;83.92;101285.34;5010876;28;20468;-68
2023/07/19 07:11:40;;;;;;;10.38;4.60;;;;;;;19.36;84.13;101281.75;5011085;28;20030;-67
2023/07/19 07:14:05;;;;;;;10.90;4.70;;;;;;;19.38;82.77;101283.16;5009874;28;20034;-66
2023/07/19 07:16:31;;;;;;;12.20;4.90;;;;;;;19.49;82.07;101289.56;5010102;28;20041;-67
2023/07/19 07:18:56;;;;;;;10.00;4.53;;;;;;;19.55;81.02;101282.38;5010264;28;20065;-66
2023/07/19 07:21:22;;;;;;;9.15;4.60;;;;;;;19.65;80.71;101285.22;5010596;28;20037;-65
2023/07/19 07:23:48;;;;;;;9.85;4.75;;;;;;;19.74;82.13;101288.38;5010538;28;20110;-67
2023/07/19 07:26:14;;;;;;;8.75;3.60;;;;;;;19.83;79.00;101295.00;5012655;28;20033;-65
2023/07/19 07:28:40;;;;;;;18.45;4.97;;;;;;;19.92;80.92;101288.91;5010328;28;20033;-67
2023/07/19 07:31:06;;;;;;;8.43;4.35;;;;;;;19.98;80.00;101291.69;5010591;28;20107;-67
2023/07/19 07:33:31;;;;;;;9.32;3.75;;;;;;;20.13;80.54;101287.31;5010469;28;20033;-67
2023/07/19 07:35:57;;;;;;;10.35;4.05;;;;;;;20.23;79.34;101286.66;5010441;28;20049;-67
2023/07/19 07:38:22;;;;;;;9.48;5.05;;;;;;;20.21;77.88;101277.13;5029134;28;20491;-65
2023/07/19 07:40:48;;;;;;;8.93;4.15;;;;;;;20.17;77.79;101289.53;5029110;28;20034;-66
2023/07/19 07:43:13;;;;;;;6.35;3.42;;;;;;;20.12;79.14;101279.44;5028777;28;20503;-67
2023/07/19 07:45:39;;;;;;;9.25;3.95;;;;;;;20.06;78.41;101283.16;5029045;28;20495;-66
2023/07/19 07:48:05;;;;;;;9.35;4.45;;;;;;;19.99;78.69;101282.50;5029176;28;20205;-67
2023/07/19 07:50:30;;;;;;;7.18;3.95;;;;;;;19.98;80.06;101275.47;5028922;28;20067;-66
2023/07/19 07:52:56;;;;;;;7.00;3.78;;;;;;;20.00;79.97;101270.63;5028829;28;20077;-65
2023/07/19 07:55:22;;;;;;;6.25;3.47;;;;;;;19.98;80.34;101276.28;5018974;28;20116;-66
2023/07/19 07:57:47;;;;;;;13.82;3.80;;;;;;;19.96;80.49;101277.59;5010040;28;20126;-65
2023/07/19 08:00:15;;;;;;;8.88;3.90;;;;;;;19.99;81.17;101277.09;5010229;28;20483;-66
2023/07/19 08:02:40;;;;;;;12.05;4.07;;;;;;;19.99;79.86;101279.78;5010043;28;20033;-66
2023/07/19 08:05:06;;;;;;;8.43;3.85;;;;;;;19.99;80.80;101272.50;5009531;28;20028;-65
2023/07/19 08:07:32;;;;;;;6.65;3.72;;;;;;;20.03;80.93;101267.41;5027906;28;20037;-67
2023/07/19 08:09:58;;;;;;;6.20;3.08;;;;;;;20.23;80.28;101270.41;5028461;28;20084;-67
2023/07/19 08:12:24;;;;;;;9.15;3.58;;;;;;;20.45;79.11;101270.38;5028379;28;20483;-67
2023/07/19 08:14:49;;;;;;;11.93;4.68;;;;;;;20.64;78.63;101265.50;5028450;28;20045;-67
2023/07/19 08:17:15;;;;;;;9.95;4.40;;;;;;;21.24;75.82;101274.50;5028485;28;20021;-67
2023/07/19 08:19:40;;;;;;;7.07;2.92;;;;;;;22.02;70.50;101266.69;5028340;28;20026;-67
2023/07/19 08:22:06;;;;;;;6.63;3.60;;;;;;;22.74;67.12;101267.00;5028784;28;20130;-67
2023/07/19 08:24:31;;;;;;;7.65;2.95;;;;;;;24.43;61.62;101258.75;5010075;28;20156;-66
2023/07/19 08:26:57;;;;;;;9.73;3.33;;;;;;;25.71;56.49;101253.25;5028435;28;20091;-65
2023/07/19 08:29:25;;;;;;;11.38;4.20;;;;;;;26.10;53.90;101251.50;5028375;28;20391;-64
2023/07/19 08:31:51;;;;;;;5.70;3.25;;;;;;;26.23;54.79;101251.59;5028397;28;20021;-66
2023/07/19 08:34:16;;;;;;;7.68;3.38;;;;;;;27.28;51.57;101247.97;5028233;28;20037;-68
2023/07/19 08:36:42;;;;;;;6.90;3.70;;;;;;;27.08;51.23;101247.13;5028213;28;20045;-66
2023/07/19 08:39:07;;;;;;;5.95;2.38;;;;;;;26.22;51.40;101243.69;5028117;28;20077;-66
2023/07/19 08:41:34;;;;;;;8.68;3.08;;;;;;;25.95;49.43;101244.28;5028487;28;20034;-67
2023/07/19 08:43:59;;;;;;;5.10;2.78;;;;;;;25.75;53.54;101245.28;5027853;28;20096;-67
2023/07/19 08:46:25;;;;;;;3.75;2.00;;;;;;;25.23;53.30;101247.69;5028310;28;20045;-67
2023/07/19 08:48:50;;;;;;;5.47;2.00;;;;;;;24.58;55.65;101247.00;5028341;28;20064;-67
2023/07/19 08:51:17;;;;;;;5.00;1.90;;;;;;;23.92;56.53;101250.75;5028117;28;20103;-67
2023/07/19 08:53:43;;;;;;;3.95;1.85;;;;;;;23.50;56.30;101251.88;5028203;28;20050;-65
2023/07/19 08:56:10;;;;;;;3.58;1.65;;;;;;;22.98;57.34;101253.78;5012666;28;20508;-65
2023/07/19 08:58:37;;;;;;;5.68;2.08;;;;;;;22.81;59.77;101248.53;5009485;28;20033;-66
2023/07/19 09:01:03;;;;;;;12.85;2.90;;;;;;;22.64;58.82;101261.56;5010384;28;20025;-66
2023/07/19 09:03:28;;;;;;;2.90;1.92;;;;;;;22.41;61.05;101255.50;4995124;28;20385;-67
2023/07/19 09:05:54;;;;;;;7.38;3.00;;;;;;;22.28;62.99;101253.28;5012931;28;20129;-66
2023/07/19 09:08:20;;;;;;;4.60;2.65;;;;;;;22.25;64.16;101251.91;5012799;28;20115;-66
2023/07/19 09:10:46;;;;;;;6.25;3.20;;;;;;;22.21;61.42;101255.41;4995429;28;20037;-69
2023/07/19 09:13:18;;;;;;;7.70;3.13;;;;;;;21.94;62.46;101261.78;4995198;28;20033;-68
2023/07/19 09:15:48;;;;;;;6.72;1.98;;;;;;;21.71;64.48;101254.00;5013027;28;20489;-66
2023/07/19 09:18:13;;;;;;;4.63;2.20;;;;;;;21.67;65.49;101251.81;5012984;28;20505;-70
2023/07/19 09:20:39;;;;;;;5.75;2.80;;;;;;;21.76;65.82;101256.75;5012898;28;20121;-66
2023/07/19 09:23:06;;;;;;;6.80;3.38;;;;;;;21.80;66.68;101249.75;5012916;28;20037;-75
2023/07/19 09:25:31;;;;;;;7.78;3.80;;;;;;;21.75;67.31;101245.09;5012831;28;20042;-70
2023/07/19 09:27:57;;;;;;;7.57;2.85;;;;;;;21.63;67.92;101245.28;5031385;28;20656;-69
2023/07/19 09:30:22;;;;;;;7.38;3.00;;;;;;;21.50;69.57;101253.06;5031688;28;20033;-69
2023/07/19 09:32:58;;;;;;;8.13;3.15;;;;;;;21.43;69.94;101259.53;5031431;28;20072;-70
2023/07/19 09:35:27;;;;;;;5.78;2.55;;;;;;;21.56;71.08;101260.16;5012280;28;20070;-70
2023/07/19 09:37:53;;;;;;;6.78;2.60;;;;;;;21.76;72.10;101252.16;5031362;28;20071;-70
2023/07/19 09:40:19;;;;;;;8.13;3.17;;;;;;;21.88;71.33;101247.34;5031648;28;20022;-69
2023/07/19 09:42:45;;;;;;;3.50;2.72;;;;;;;22.05;70.60;101246.34;5031418;28;20040;-69
2023/07/19 09:45:11;;;;;;;6.55;2.88;;;;;;;22.16;70.58;101248.00;5030816;28;20416;-69
2023/07/19 09:47:39;;;;;;;10.40;4.43;;;;;;;22.02;70.42;101242.25;5031584;28;20551;-69
2023/07/19 09:50:06;;;;;;;10.02;3.25;;;;;;;22.06;70.44;101254.25;5031402;28;20448;-69
2023/07/19 09:52:36;;;;;;;9.85;3.13;;;;;;;22.04;72.94;101239.28;5031007;28;20136;-69
2023/07/19 09:55:02;;;;;;;7.32;3.70;;;;;;;21.95;71.89;101252.53;5012328;28;20037;-70
2023/07/19 09:57:27;;;;;;;10.07;3.33;;;;;;;21.86;73.27;101249.50;5011572;28;20440;-69
2023/07/19 09:59:53;;;;;;;7.50;2.83;;;;;;;21.89;72.50;101240.81;5011481;28;20084;-69
2023/07/19 10:02:21;;;;;;;7.35;2.70;;;;;;;22.08;74.16;101243.09;5030948;28;20030;-70
2023/07/19 10:04:47;;;;;;;4.80;2.60;;;;;;;22.06;72.21;101254.25;5012830;28;20435;-69
2023/07/19 10:07:19;;;;;;;8.88;3.40;;;;;;;21.87;72.58;101245.69;5015733;28;20552;-67
2023/07/19 10:09:45;;;;;;;6.93;3.22;;;;;;;21.72;72.33;101242.06;5012140;28;20087;-67
2023/07/19 10:12:17;;;;;;;5.55;2.53;;;;;;;21.82;74.62;101239.41;5011666;28;20033;-66
2023/07/19 10:14:55;;;;;;;5.53;3.13;;;;;;;22.05;75.13;101236.28;5012010;28;20022;-70
2023/07/19 10:17:21;;;;;;;5.75;2.60;;;;;;;22.28;75.19;101240.50;5030334;28;20080;-69
2023/07/19 10:20:16;;;;;;;5.05;2.90;;;;;;;22.45;73.63;101240.31;5030714;28;20566;-69
2023/07/19 10:22:46;;;;;;;8.13;3.10;;;;;;;22.21;71.71;101248.06;5008921;28;20132;-69
2023/07/19 10:25:15;;;;;;;7.35;2.53;;;;;;;21.92;73.17;101244.91;5022658;28;20342;-69
2023/07/19 10:27:41;;;;;;;5.05;2.85;;;;;;;21.84;71.50;101238.06;5011686;28;20492;-69
2023/07/19 10:30:06;;;;;;;4.15;2.08;;;;;;;21.89;72.08;101243.53;5011570;28;20037;-69
2023/07/19 10:32:32;;;;;;;3.17;2.30;;;;;;;21.88;70.80;101244.63;4994295;28;20057;-68
2023/07/19 10:34:57;;;;;;;7.03;2.20;;;;;;;21.92;72.55;101241.38;5024379;28;20038;-69
2023/07/19 10:37:23;;;;;;;4.63;2.45;;;;;;;22.23;74.21;101240.47;5011441;28;20034;-69
2023/07/19 10:39:48;;;;;;;6.95;1.80;;;;;;;22.26;68.39;101242.66;5011361;28;20579;-68
2023/07/19 10:42:13;;;;;;;4.03;1.80;;;;;;;22.14;67.33;101250.22;5011515;28;20485;-69
2023/07/19 10:44:40;;;;;;;3.45;1.90;;;;;;;22.04;66.17;101240.09;5011394;28;20061;-68
2023/07/19 10:47:05;;;;;;;9.40;2.97;;;;;;;22.05;66.19;101239.00;5011180;28;20080;-66
2023/07/19 10:49:31;;;;;;;5.82;2.47;;;;;;;22.32;65.00;101246.22;5011193;28;20038;-65
2023/07/19 10:51:58;;;;;;;4.35;2.05;;;;;;;22.50;67.03;101239.50;5010301;28;20030;-66
2023/07/19 10:54:25;;;;;;;2.72;1.60;;;;;;;22.68;66.89;101236.28;5009862;28;20133;-69
2023/07/19 10:56:52;;;;;;;5.57;2.10;;;;;;;22.86;67.31;101237.69;5010272;28;20385;-67
2023/07/19 10:59:17;;;;;;;3.40;1.58;;;;;;;22.83;64.27;101232.78;5011176;28;20053;-65
2023/07/19 11:01:44;;;;;;;4.70;1.95;;;;;;;22.72;63.13;101242.03;5010005;28;20061;-66
2023/07/19 11:04:09;;;;;;;3.55;1.90;;;;;;;22.68;65.06;101239.00;5010725;28;20026;-65
2023/07/19 11:06:37;;;;;;;7.28;1.73;;;;;;;22.60;64.00;101236.00;5010335;28;20087;-67
2023/07/19 11:09:07;;;;;;;4.75;1.98;;;;;;;22.72;64.49;101239.28;5029446;28;20039;-65
2023/07/19 11:11:36;;;;;;;4.50;2.30;;;;;;;22.76;63.25;101238.47;5029594;28;20468;-68